MUC | München Airways

 METAR UND TAF INFORMATION

METAR FOR LIRQ
ADDS - METARS form results

(1534 UTC 19 May 2019)
Data provider http://aviationweather.gov/metar/data/
 
METAR text: LIRQ 191520Z VRB02KT 9999 -RA SCT020 BKN045 16/13 Q1005
Conditions at: LIRQ (FIRENZE/PERETOLA, IT) observed 1520 UTC 19 May 2019
Temperature: 16.0°C (61°F)
Dewpoint: 13.0°C (55°F) [RH = 82%]
Pressure (altimeter): 29.68 inches Hg (1005.0 mb)
Winds: variable direction winds at 2 MPH (2 knots; 1.0 m/s)
Visibility: 6 or more miles (10+ km)
Ceiling: 4500 feet AGL
Clouds: scattered clouds at 2000 feet AGL
broken clouds at 4500 feet AGL
Weather: -RA  (light rain)

METAR text: LIRQ 191450Z 26005KT 170V300 9999 -RA SCT020 BKN045 16/13 Q1005
Conditions at: LIRQ (FIRENZE/PERETOLA, IT) observed 1450 UTC 19 May 2019
Temperature: 16.0°C (61°F)
Dewpoint: 13.0°C (55°F) [RH = 82%]
Pressure (altimeter): 29.68 inches Hg (1005.0 mb)
Winds: from the W (260 degrees) at 6 MPH (5 knots; 2.6 m/s)
Visibility: 6 or more miles (10+ km)
Ceiling: 4500 feet AGL
Clouds: scattered clouds at 2000 feet AGL
broken clouds at 4500 feet AGL
Weather: -RA  (light rain)

Forecast for: LIRQ (FIRENZE/PERETOLA, IT)
Text: TAF LIRQ 191100Z 1912/2012 VRB06KT 8000 BKN020
Forecast period: 1200 UTC 19 May 2019 to 1200 UTC 20 May 2019
Forecast type: FROM: standard forecast or significant change
Winds: variable direction winds at 7 MPH (6 knots; 3.1 m/s)
Visibility: 5 miles (8 km)
Ceiling: 2000 feet AGL
Clouds: broken clouds at 2000 feet AGL
Weather: no significant weather forecast for this period
Text: TEMPO 1912/1918 4000 TSRA
Forecast period: 1200 to 1800 UTC 19 May 2019
Forecast type: TEMPORARY: The following changes expected for less than half the time period
Visibility: 2.49 miles (4.01 km)
Ceiling: unknown
Clouds: missing
Weather: TSRA  (rain associated with thunderstorm(s))
Text: TEMPO 1918/1924 4000 RA
Forecast period: 1800 UTC 19 May 2019 to 0000 UTC 20 May 2019
Forecast type: TEMPORARY: The following changes expected for less than half the time period
Visibility: 2.49 miles (4.01 km)
Ceiling: unknown
Clouds: missing
Weather: RA  (moderate rain)

 FLUGHAFENKARTE

 RUNWAY INFORMATION
Runway 05 Runway length 5425 ft Runway width 98 ft
Runway elevation 123 ft Runway displaced threshold 492 ft Runway heading 48
Runway 23 Runway length 5425 ft Runway width 98 ft
Runway elevation 132 ft Runway displaced threshold 2287 ft Runway heading 228

 AIRPORT FREQUENCIES
Type APP Name APP Frequency 126.075 MHZ
Type ATIS Name ATIS Frequency 129.35 MHZ
Type TWR Name FIRENZE TW Frequency 118.3 MHZ

 AIRPORT NEAR NAVIGATION AIDS
Type VOR-DME Name Peretola Frequency 112500 KHZ